createdAt,value
2023-01-30T00:00:41.632Z,79.67
2023-01-30T00:01:44.347Z,79.60
2023-01-30T00:02:46.298Z,79.40
2023-01-30T00:03:48.518Z,79.20
2023-01-30T00:04:50.656Z,79.45
2023-01-30T00:05:53.428Z,79.30
2023-01-30T00:06:55.887Z,79.24
2023-01-30T00:07:58.097Z,79.25
2023-01-30T00:09:00.192Z,79.50
2023-01-30T00:10:02.228Z,79.19
2023-01-30T00:11:06.267Z,79.28
2023-01-30T00:12:08.351Z,78.98
2023-01-30T00:13:10.914Z,79.00
2023-01-30T00:14:13.036Z,78.87
2023-01-30T00:15:15.189Z,78.79
2023-01-30T00:16:18.836Z,79.04
2023-01-30T00:17:21.079Z,78.78
2023-01-30T00:18:23.151Z,79.11
2023-01-30T00:19:25.102Z,79.48
2023-01-30T00:20:27.160Z,79.48
2023-01-30T00:21:29.146Z,79.45
2023-01-30T00:22:31.450Z,79.81
2023-01-30T00:23:35.182Z,79.61
2023-01-30T00:24:37.562Z,79.45
2023-01-30T00:25:39.637Z,79.32
2023-01-30T00:26:42.173Z,79.86
2023-01-30T00:27:44.191Z,79.82
2023-01-30T00:28:46.291Z,79.53
2023-01-30T00:29:57.766Z,79.57
2023-01-30T00:31:04.524Z,79.32
2023-01-30T00:32:06.519Z,79.89
2023-01-30T00:33:10.217Z,79.93
2023-01-30T00:34:12.183Z,79.60
2023-01-30T00:35:14.315Z,79.89
2023-01-30T00:36:16.502Z,79.93
2023-01-30T00:37:18.460Z,80.01
2023-01-30T00:38:21.721Z,79.76
2023-01-30T00:39:24.020Z,79.93
2023-01-30T00:40:27.743Z,79.83
2023-01-30T00:41:49.813Z,79.81
2023-01-30T00:44:32.198Z,79.56
2023-01-30T00:45:52.990Z,80.01
2023-01-30T00:47:07.427Z,79.88
2023-01-30T00:48:09.536Z,79.61
2023-01-30T00:49:11.814Z,79.76
2023-01-30T00:50:13.763Z,79.71
2023-01-30T00:51:16.272Z,80.27
2023-01-30T00:52:18.088Z,80.62
2023-01-30T00:53:20.330Z,80.45
2023-01-30T00:54:22.388Z,80.74
2023-01-30T00:55:24.416Z,80.65
2023-01-30T00:56:26.400Z,80.97
2023-01-30T00:57:28.524Z,80.89
2023-01-30T00:58:30.473Z,80.64
2023-01-30T00:59:32.536Z,80.97
2023-01-30T01:00:34.763Z,80.81
2023-01-30T01:01:38.021Z,80.92
2023-01-30T01:02:40.260Z,80.80
2023-01-30T01:03:42.689Z,81.23
2023-01-30T01:04:44.534Z,81.21
2023-01-30T01:05:47.468Z,81.13
2023-01-30T01:06:49.489Z,81.13
2023-01-30T01:07:51.523Z,80.97
2023-01-30T01:08:53.619Z,80.58
2023-01-30T01:09:55.909Z,80.64
2023-01-30T01:10:58.006Z,80.49
2023-01-30T01:12:00.379Z,80.71
2023-01-30T01:13:03.165Z,81.09
2023-01-30T01:14:06.686Z,80.93
2023-01-30T01:15:08.929Z,81.26
2023-01-30T01:16:11.154Z,81.27
2023-01-30T01:17:13.198Z,81.06
2023-01-30T01:18:15.308Z,81.53
2023-01-30T01:19:17.657Z,81.11
2023-01-30T01:20:20.172Z,81.15
2023-01-30T01:21:23.124Z,81.03
2023-01-30T01:22:25.063Z,80.73
2023-01-30T01:23:27.000Z,81.37
2023-01-30T01:24:29.126Z,81.12
2023-01-30T01:25:31.344Z,81.62
2023-01-30T01:26:34.054Z,81.82
2023-01-30T01:27:36.800Z,82.03
2023-01-30T01:28:38.860Z,81.67
2023-01-30T01:29:41.036Z,81.70
2023-01-30T01:30:43.043Z,81.74
2023-01-30T01:31:45.357Z,81.67
2023-01-30T01:32:47.324Z,81.43
2023-01-30T01:33:49.318Z,81.11
2023-01-30T01:34:51.325Z,80.94
2023-01-30T01:35:57.095Z,81.32
2023-01-30T01:36:59.195Z,80.94
2023-01-30T01:38:01.267Z,81.00
2023-01-30T01:39:03.946Z,80.80
2023-01-30T01:40:25.588Z,80.85
2023-01-30T01:41:27.991Z,80.97
2023-01-30T01:42:31.012Z,80.84
2023-01-30T01:43:36.815Z,80.96
2023-01-30T01:45:19.453Z,80.93
2023-01-30T01:46:27.409Z,80.69
2023-01-30T01:47:32.061Z,80.77
2023-01-30T01:48:41.850Z,79.74
2023-01-30T01:49:44.682Z,79.52
2023-01-30T01:50:59.679Z,79.92
2023-01-30T01:52:01.660Z,79.97
2023-01-30T01:53:03.985Z,80.37
2023-01-30T01:54:18.989Z,80.24
2023-01-30T01:55:24.149Z,79.78
2023-01-30T01:56:27.316Z,79.95
2023-01-30T01:57:35.412Z,80.14
2023-01-30T01:58:51.124Z,80.27
2023-01-30T02:00:07.015Z,79.79
2023-01-30T02:01:09.185Z,79.83
2023-01-30T02:02:14.780Z,79.70
2023-01-30T02:03:24.634Z,79.28
2023-01-30T02:04:47.024Z,79.32
2023-01-30T02:05:53.389Z,79.67
2023-01-30T02:06:55.424Z,80.06
2023-01-30T02:08:20.083Z,79.40
2023-01-30T02:09:22.142Z,79.78
2023-01-30T02:10:34.450Z,79.96
2023-01-30T02:11:46.547Z,79.90
2023-01-30T02:12:51.077Z,79.92
2023-01-30T02:13:53.781Z,79.94
2023-01-30T02:14:59.378Z,80.02
2023-01-30T02:16:03.388Z,80.34
2023-01-30T02:17:05.725Z,80.16
2023-01-30T02:18:08.067Z,80.06
2023-01-30T02:19:23.045Z,80.52
2023-01-30T02:20:45.276Z,80.32
2023-01-30T02:22:08.995Z,80.15
2023-01-30T02:23:17.005Z,80.84
2023-01-30T02:24:36.335Z,80.61
2023-01-30T02:26:16.322Z,81.33
2023-01-30T02:27:41.148Z,81.59
2023-01-30T02:28:48.518Z,81.22
2023-01-30T02:30:28.686Z,80.99
2023-01-30T02:31:58.672Z,80.32
2023-01-30T02:33:21.174Z,80.80
2023-01-30T02:34:49.617Z,80.87
2023-01-30T02:36:26.694Z,81.11
2023-01-30T02:37:56.008Z,80.51
2023-01-30T02:39:28.679Z,80.54
2023-01-30T02:40:58.981Z,80.36
2023-01-30T02:42:38.259Z,80.62
2023-01-30T02:43:58.652Z,80.80
2023-01-30T02:45:30.838Z,80.97
2023-01-30T02:46:36.605Z,80.78
2023-01-30T02:48:10.058Z,81.70
2023-01-30T02:49:18.971Z,81.42
2023-01-30T02:50:25.480Z,81.36
2023-01-30T02:51:30.943Z,81.38
2023-01-30T02:52:34.471Z,82.02
2023-01-30T02:53:37.594Z,81.00
2023-01-30T02:54:39.720Z,80.69
2023-01-30T02:55:42.370Z,81.63
2023-01-30T02:56:50.538Z,81.65
2023-01-30T02:57:52.625Z,81.87
2023-01-30T02:59:06.292Z,82.03
2023-01-30T03:00:09.127Z,81.76
2023-01-30T03:01:32.093Z,81.86
2023-01-30T03:03:07.956Z,81.83
2023-01-30T03:04:51.108Z,81.21
2023-01-30T03:06:20.706Z,81.75
2023-01-30T03:07:41.037Z,81.40
2023-01-30T03:08:51.899Z,81.78
2023-01-30T03:10:15.943Z,82.01
2023-01-30T03:11:18.631Z,82.00
2023-01-30T03:12:41.217Z,81.52
2023-01-30T03:14:06.992Z,81.79
2023-01-30T03:15:41.277Z,81.55
2023-01-30T03:16:43.989Z,81.79
2023-01-30T03:17:48.211Z,82.10
2023-01-30T03:18:50.304Z,81.33
2023-01-30T03:19:54.650Z,81.67
2023-01-30T03:20:56.946Z,81.28
2023-01-30T03:21:59.012Z,80.87
2023-01-30T03:23:01.515Z,80.75
2023-01-30T03:24:03.559Z,80.81
2023-01-30T03:25:06.127Z,80.81
2023-01-30T03:26:13.393Z,80.48
2023-01-30T03:27:15.378Z,79.97
2023-01-30T03:28:20.305Z,80.19
2023-01-30T03:29:22.481Z,80.16
2023-01-30T03:30:27.884Z,79.79
2023-01-30T03:31:30.172Z,80.09
2023-01-30T03:32:32.398Z,79.62
2023-01-30T03:33:34.467Z,79.79
2023-01-30T03:34:36.466Z,80.05
2023-01-30T03:35:38.957Z,79.90
2023-01-30T03:36:41.479Z,79.89
2023-01-30T03:37:46.061Z,79.91
2023-01-30T03:38:48.332Z,80.13
2023-01-30T03:39:50.791Z,80.33
2023-01-30T03:40:52.611Z,80.01
2023-01-30T03:41:54.888Z,80.01
2023-01-30T03:42:57.059Z,80.28
2023-01-30T03:43:59.025Z,79.92
2023-01-30T03:45:01.061Z,79.94
2023-01-30T03:46:03.386Z,79.88
2023-01-30T03:47:05.480Z,79.50
2023-01-30T03:48:07.701Z,79.54
2023-01-30T03:49:09.648Z,79.81
2023-01-30T03:50:11.911Z,79.58
2023-01-30T03:51:13.955Z,79.43
2023-01-30T03:52:15.972Z,79.57
2023-01-30T03:53:18.013Z,79.47
2023-01-30T03:54:20.496Z,79.54
2023-01-30T03:55:22.469Z,79.60
2023-01-30T03:56:24.593Z,79.55
2023-01-30T03:57:26.662Z,79.54
2023-01-30T03:58:28.656Z,79.52
2023-01-30T03:59:30.653Z,79.45
2023-01-30T04:00:33.379Z,79.18
2023-01-30T04:01:35.375Z,79.30
2023-01-30T04:02:38.936Z,79.14
2023-01-30T04:03:40.996Z,79.27
2023-01-30T04:04:42.969Z,79.49
2023-01-30T04:05:45.128Z,78.92
2023-01-30T04:06:47.196Z,78.77
2023-01-30T04:07:50.146Z,79.10
2023-01-30T04:08:55.328Z,79.27
2023-01-30T04:09:57.708Z,79.13
2023-01-30T04:10:59.925Z,79.18
2023-01-30T04:12:01.931Z,79.20
2023-01-30T04:13:04.028Z,79.07
2023-01-30T04:14:06.175Z,78.95
2023-01-30T04:15:09.039Z,78.43
2023-01-30T04:16:19.883Z,78.85
2023-01-30T04:17:21.963Z,78.86
2023-01-30T04:18:24.067Z,79.26
2023-01-30T04:19:26.130Z,78.95
2023-01-30T04:20:28.332Z,78.74
2023-01-30T04:21:30.419Z,78.64
2023-01-30T04:22:32.697Z,78.82
2023-01-30T04:23:34.763Z,78.76
2023-01-30T04:24:36.749Z,78.80
2023-01-30T04:25:38.828Z,79.37
2023-01-30T04:26:40.902Z,79.03
2023-01-30T04:27:43.703Z,78.98
2023-01-30T04:28:45.792Z,78.42
2023-01-30T04:29:48.071Z,79.24
2023-01-30T04:30:50.263Z,79.39
2023-01-30T04:31:52.431Z,79.06
2023-01-30T04:32:54.436Z,78.73
2023-01-30T04:33:56.839Z,79.04
2023-01-30T04:34:58.677Z,78.57
2023-01-30T04:36:01.518Z,78.81
2023-01-30T04:37:03.529Z,79.29
2023-01-30T04:38:05.534Z,78.85
2023-01-30T04:39:07.751Z,78.73
2023-01-30T04:40:10.365Z,78.84
2023-01-30T04:41:12.355Z,78.94
2023-01-30T04:42:17.518Z,78.63
2023-01-30T04:43:20.562Z,79.14
2023-01-30T04:44:24.211Z,79.22
2023-01-30T04:45:26.308Z,79.25
2023-01-30T04:46:28.499Z,79.18
2023-01-30T04:47:30.688Z,78.82
2023-01-30T04:48:32.895Z,78.66
2023-01-30T04:49:34.943Z,78.87
2023-01-30T04:50:36.922Z,78.99
2023-01-30T04:51:39.018Z,79.20
2023-01-30T04:52:41.072Z,79.28
2023-01-30T04:53:43.109Z,79.10
2023-01-30T04:54:45.495Z,78.36
2023-01-30T04:55:47.467Z,78.32
2023-01-30T04:56:49.444Z,78.63
2023-01-30T04:57:51.463Z,78.51
2023-01-30T04:58:53.535Z,78.15
2023-01-30T04:59:55.472Z,78.21
2023-01-30T05:01:18.022Z,78.16
2023-01-30T05:02:21.820Z,78.64
2023-01-30T05:03:25.055Z,78.91
2023-01-30T05:04:27.091Z,78.53
2023-01-30T05:05:29.364Z,79.26
2023-01-30T05:06:32.226Z,79.69
2023-01-30T05:07:34.330Z,79.57
2023-01-30T05:08:36.552Z,79.72
2023-01-30T05:09:38.910Z,79.90
2023-01-30T05:10:41.322Z,79.61
2023-01-30T05:11:43.255Z,79.33
2023-01-30T05:12:45.941Z,79.34
2023-01-30T05:13:48.372Z,79.36
2023-01-30T05:14:50.167Z,79.01
2023-01-30T05:15:52.291Z,79.10
2023-01-30T05:16:54.306Z,79.06
2023-01-30T05:17:56.285Z,79.80
2023-01-30T05:18:58.693Z,80.44
2023-01-30T05:20:00.458Z,80.43
2023-01-30T05:21:13.894Z,80.67
2023-01-30T05:22:15.915Z,80.15
2023-01-30T05:23:17.996Z,80.17
2023-01-30T05:24:20.223Z,80.43
2023-01-30T05:25:22.160Z,79.54
2023-01-30T05:26:24.549Z,80.00
2023-01-30T05:27:26.392Z,79.90
2023-01-30T05:28:29.595Z,79.81
2023-01-30T05:29:31.786Z,79.82
2023-01-30T05:30:33.937Z,80.35
2023-01-30T05:31:35.956Z,80.09
2023-01-30T05:32:37.990Z,79.99
2023-01-30T05:33:41.631Z,80.49
2023-01-30T05:34:43.808Z,80.53
2023-01-30T05:35:50.044Z,80.43
2023-01-30T05:36:52.168Z,80.10
2023-01-30T05:37:54.276Z,80.44
2023-01-30T05:38:56.281Z,80.12
2023-01-30T05:39:58.437Z,79.85
2023-01-30T05:41:05.735Z,80.21
2023-01-30T05:42:07.995Z,80.19
2023-01-30T05:43:09.985Z,79.67
2023-01-30T05:44:12.693Z,80.26
2023-01-30T05:45:14.909Z,80.19
2023-01-30T05:46:17.183Z,79.37
2023-01-30T05:47:19.205Z,79.37
2023-01-30T05:48:22.289Z,79.41
2023-01-30T05:49:24.652Z,79.54
2023-01-30T05:50:26.804Z,78.94
2023-01-30T05:51:29.135Z,79.83
2023-01-30T05:52:31.724Z,79.16
2023-01-30T05:53:37.611Z,79.56
2023-01-30T05:54:39.712Z,78.86
2023-01-30T05:55:41.816Z,78.79
2023-01-30T05:56:43.848Z,78.54
2023-01-30T05:57:45.777Z,78.11
2023-01-30T05:58:52.741Z,78.75
2023-01-30T05:59:54.700Z,78.99
2023-01-30T06:01:02.131Z,78.67
2023-01-30T06:02:04.208Z,78.69
2023-01-30T06:03:06.164Z,79.11
2023-01-30T06:04:08.314Z,79.39
2023-01-30T06:05:10.423Z,79.77
2023-01-30T06:06:13.645Z,79.14
2023-01-30T06:07:15.875Z,79.31
2023-01-30T06:08:17.854Z,79.86
2023-01-30T06:09:19.880Z,79.48
2023-01-30T06:10:22.408Z,79.67
2023-01-30T06:11:24.830Z,80.14
2023-01-30T06:12:26.746Z,79.67
2023-01-30T06:13:28.937Z,80.02
2023-01-30T06:14:30.909Z,79.75
2023-01-30T06:15:33.520Z,79.51
2023-01-30T06:16:35.565Z,79.60
2023-01-30T06:17:37.749Z,80.17
2023-01-30T06:18:40.222Z,79.23
2023-01-30T06:19:42.013Z,79.30
2023-01-30T06:20:49.577Z,79.66
2023-01-30T06:21:51.584Z,79.61
2023-01-30T06:22:53.857Z,79.96
2023-01-30T06:23:55.791Z,79.38
2023-01-30T06:24:57.797Z,79.25
2023-01-30T06:25:59.888Z,79.91
2023-01-30T06:27:01.953Z,80.19
2023-01-30T06:28:07.290Z,80.45
2023-01-30T06:29:09.340Z,80.22
2023-01-30T06:30:11.907Z,80.12
2023-01-30T06:31:13.978Z,80.45
2023-01-30T06:32:16.130Z,79.81
2023-01-30T06:33:19.070Z,80.43
2023-01-30T06:34:20.981Z,79.88
2023-01-30T06:35:23.191Z,80.56
2023-01-30T06:36:25.269Z,80.13
2023-01-30T06:37:27.853Z,79.97
2023-01-30T06:38:29.980Z,80.45
2023-01-30T06:39:32.171Z,79.86
2023-01-30T06:40:34.115Z,79.68
2023-01-30T06:41:36.073Z,79.67
2023-01-30T06:42:38.026Z,79.49
2023-01-30T06:43:42.960Z,79.25
2023-01-30T06:44:45.171Z,79.21
2023-01-30T06:45:47.597Z,79.30
2023-01-30T06:46:49.685Z,79.49
2023-01-30T06:47:55.674Z,79.55
2023-01-30T06:48:59.717Z,79.71
2023-01-30T06:50:01.717Z,79.35
2023-01-30T06:51:03.783Z,78.89
2023-01-30T06:52:05.830Z,79.07
2023-01-30T06:53:08.678Z,79.00
2023-01-30T06:54:10.743Z,79.29
2023-01-30T06:55:15.508Z,79.19
2023-01-30T06:56:17.680Z,78.83
2023-01-30T06:57:19.640Z,79.63
2023-01-30T06:58:21.932Z,79.34
2023-01-30T06:59:24.027Z,79.27
2023-01-30T07:00:26.037Z,79.28
2023-01-30T07:01:29.092Z,79.59
2023-01-30T07:02:34.953Z,79.61
2023-01-30T07:03:37.345Z,79.19
2023-01-30T07:04:39.449Z,79.78
2023-01-30T07:05:43.364Z,79.26
2023-01-30T07:06:47.036Z,79.13
2023-01-30T07:07:49.177Z,79.09
2023-01-30T07:08:51.143Z,79.10
2023-01-30T07:10:06.969Z,78.89
2023-01-30T07:11:09.516Z,78.97
2023-01-30T07:12:11.420Z,79.14
2023-01-30T07:13:14.062Z,79.10
2023-01-30T07:14:16.067Z,79.15
2023-01-30T07:15:18.678Z,79.11
2023-01-30T07:16:21.055Z,78.44
2023-01-30T07:17:23.603Z,78.31
2023-01-30T07:18:25.387Z,78.36
2023-01-30T07:19:27.321Z,78.71
2023-01-30T07:20:31.756Z,78.78
2023-01-30T07:21:33.783Z,78.37
2023-01-30T07:22:35.908Z,78.73
2023-01-30T07:23:37.953Z,78.60
2023-01-30T07:24:40.813Z,78.24
2023-01-30T07:25:42.912Z,78.21
2023-01-30T07:26:48.464Z,78.37
2023-01-30T07:27:52.403Z,78.38
2023-01-30T07:28:54.387Z,78.40
2023-01-30T07:29:56.371Z,77.24
2023-01-30T07:31:02.173Z,77.60
2023-01-30T07:32:05.935Z,77.68
2023-01-30T07:33:08.061Z,77.77
2023-01-30T07:34:10.023Z,77.73
2023-01-30T07:35:12.098Z,78.25
2023-01-30T07:36:14.182Z,77.36
2023-01-30T07:37:16.184Z,77.87
2023-01-30T07:38:18.214Z,78.30
2023-01-30T07:39:20.181Z,77.85
2023-01-30T07:40:23.288Z,77.71
2023-01-30T07:41:25.551Z,77.53
2023-01-30T07:42:27.622Z,77.75
2023-01-30T07:43:29.595Z,78.05
2023-01-30T07:44:32.171Z,77.83
2023-01-30T07:45:39.999Z,78.35
2023-01-30T07:46:42.209Z,78.48
2023-01-30T07:47:44.133Z,78.71
2023-01-30T07:48:47.231Z,78.21
2023-01-30T07:49:49.693Z,78.06
2023-01-30T07:50:51.627Z,77.80
2023-01-30T07:51:53.682Z,77.92
2023-01-30T07:52:55.716Z,77.73
2023-01-30T07:53:57.754Z,77.58
2023-01-30T07:55:01.479Z,78.06
2023-01-30T07:56:08.595Z,77.57
2023-01-30T07:57:10.613Z,77.75
2023-01-30T07:58:15.718Z,77.65
2023-01-30T07:59:17.716Z,78.02
2023-01-30T08:00:20.574Z,77.78
2023-01-30T08:01:24.059Z,77.75
2023-01-30T08:02:26.146Z,77.51
2023-01-30T08:03:28.830Z,77.30
2023-01-30T08:04:30.814Z,77.12
2023-01-30T08:05:32.829Z,77.25
2023-01-30T08:06:39.299Z,77.13
2023-01-30T08:07:41.741Z,77.32
2023-01-30T08:08:44.029Z,77.60
2023-01-30T08:09:46.135Z,77.59
2023-01-30T08:10:51.210Z,77.25
2023-01-30T08:11:53.225Z,77.11
2023-01-30T08:12:55.750Z,77.23
2023-01-30T08:13:57.710Z,77.38
2023-01-30T08:14:59.785Z,77.14
2023-01-30T08:16:07.576Z,76.87
2023-01-30T08:17:09.696Z,77.00
2023-01-30T08:18:12.093Z,76.95
2023-01-30T08:19:13.931Z,77.47
2023-01-30T08:20:18.219Z,76.95
2023-01-30T08:21:20.380Z,77.57
2023-01-30T08:22:22.437Z,77.21
2023-01-30T08:23:24.633Z,78.03
2023-01-30T08:24:26.680Z,77.51
2023-01-30T08:25:29.816Z,77.54
2023-01-30T08:26:32.139Z,77.73
2023-01-30T08:27:34.193Z,77.49
2023-01-30T08:28:36.265Z,77.58
2023-01-30T08:29:38.197Z,77.68
2023-01-30T08:30:42.060Z,77.72
2023-01-30T08:31:44.847Z,77.44
2023-01-30T08:32:47.137Z,77.33
2023-01-30T08:33:49.068Z,77.11
2023-01-30T08:34:51.082Z,76.61
2023-01-30T08:35:53.363Z,76.96
2023-01-30T08:36:55.272Z,76.84
2023-01-30T08:37:57.347Z,77.04
2023-01-30T08:38:59.360Z,76.98
2023-01-30T08:40:01.442Z,77.47
2023-01-30T08:41:08.506Z,77.03
2023-01-30T08:42:10.474Z,77.57
2023-01-30T08:43:12.682Z,76.99
2023-01-30T08:44:14.738Z,77.30
2023-01-30T08:45:16.884Z,76.96
2023-01-30T08:46:21.191Z,77.09
2023-01-30T08:47:23.181Z,77.43
2023-01-30T08:48:25.760Z,77.54
2023-01-30T08:49:28.442Z,76.82
2023-01-30T08:50:31.577Z,76.33
2023-01-30T08:51:34.389Z,76.47
2023-01-30T08:52:36.440Z,76.69
2023-01-30T08:53:38.896Z,77.23
2023-01-30T08:54:40.685Z,77.19
2023-01-30T08:55:44.773Z,77.29
2023-01-30T08:56:47.088Z,76.38
2023-01-30T08:57:49.808Z,76.49
2023-01-30T08:58:51.799Z,76.47
2023-01-30T08:59:53.790Z,76.13
2023-01-30T09:00:55.899Z,75.99
2023-01-30T09:01:57.905Z,76.17
2023-01-30T09:03:02.115Z,76.05
2023-01-30T09:04:05.205Z,76.58
2023-01-30T09:05:08.610Z,77.07
2023-01-30T09:06:10.705Z,76.12
2023-01-30T09:07:12.741Z,75.82
2023-01-30T09:08:14.746Z,75.52
2023-01-30T09:09:16.779Z,75.73
2023-01-30T09:10:19.457Z,76.19
2023-01-30T09:11:21.755Z,76.25
2023-01-30T09:12:23.936Z,76.72
2023-01-30T09:13:26.607Z,76.16
2023-01-30T09:14:28.769Z,76.19
2023-01-30T09:15:30.752Z,76.17
2023-01-30T09:16:32.780Z,76.07
2023-01-30T09:17:34.843Z,75.92
2023-01-30T09:18:41.865Z,76.35
2023-01-30T09:19:43.855Z,76.23
2023-01-30T09:20:46.651Z,76.09
2023-01-30T09:21:50.661Z,76.50
2023-01-30T09:22:52.676Z,76.26
2023-01-30T09:23:56.440Z,76.53
2023-01-30T09:24:59.372Z,76.50
2023-01-30T09:26:02.576Z,76.42
2023-01-30T09:27:04.821Z,75.89
2023-01-30T09:28:07.124Z,76.38
2023-01-30T09:29:09.311Z,76.33
2023-01-30T09:30:12.326Z,76.00
2023-01-30T09:31:14.938Z,75.66
2023-01-30T09:32:16.963Z,75.51
2023-01-30T09:33:20.686Z,75.42
2023-01-30T09:34:30.586Z,75.12
2023-01-30T09:35:32.694Z,74.56
2023-01-30T09:36:34.793Z,75.25
2023-01-30T09:37:37.230Z,74.78
2023-01-30T09:38:39.089Z,74.42
2023-01-30T09:39:41.151Z,74.63
2023-01-30T09:40:52.033Z,74.38
2023-01-30T09:42:06.253Z,75.05
2023-01-30T09:43:32.755Z,74.98
2023-01-30T09:44:46.698Z,74.45
2023-01-30T09:46:00.752Z,75.11
2023-01-30T09:47:13.268Z,74.91
2023-01-30T09:48:34.101Z,74.89
2023-01-30T09:50:02.078Z,74.54
2023-01-30T09:51:19.806Z,74.62
2023-01-30T09:52:38.908Z,74.15
2023-01-30T09:54:18.919Z,73.21
2023-01-30T09:55:25.685Z,74.11
2023-01-30T09:56:28.025Z,74.36
2023-01-30T09:57:30.116Z,73.93
2023-01-30T09:58:52.395Z,74.65
2023-01-30T10:00:15.768Z,74.41
2023-01-30T10:01:38.501Z,74.83
2023-01-30T10:02:40.430Z,73.70
2023-01-30T10:03:49.945Z,73.88
2023-01-30T10:05:01.402Z,73.38
2023-01-30T10:06:07.935Z,73.63
2023-01-30T10:07:20.797Z,73.10
2023-01-30T10:08:41.213Z,73.15
2023-01-30T10:09:45.828Z,73.39
2023-01-30T10:11:00.896Z,73.16
2023-01-30T10:12:20.710Z,73.12
2023-01-30T10:13:29.088Z,72.85
2023-01-30T10:14:37.030Z,73.19
2023-01-30T10:15:38.918Z,72.68
2023-01-30T10:16:48.273Z,72.14
2023-01-30T10:17:55.762Z,73.11
2023-01-30T10:19:18.174Z,73.15
2023-01-30T10:20:26.955Z,73.03
2023-01-30T10:21:37.937Z,73.17
2023-01-30T10:22:46.071Z,73.56
2023-01-30T10:23:57.432Z,73.72
2023-01-30T10:25:05.276Z,73.56
2023-01-30T10:26:07.075Z,73.58
2023-01-30T10:27:12.613Z,72.29
2023-01-30T10:28:28.355Z,72.67
2023-01-30T10:29:31.939Z,73.30
2023-01-30T10:30:34.593Z,72.57
2023-01-30T10:31:45.729Z,73.08
2023-01-30T10:32:56.213Z,73.59
2023-01-30T10:34:02.740Z,73.36
2023-01-30T10:35:14.251Z,73.90
2023-01-30T10:36:23.783Z,73.43
2023-01-30T10:37:45.010Z,72.88
2023-01-30T10:38:54.317Z,73.24
2023-01-30T10:39:56.611Z,73.12
2023-01-30T10:40:58.321Z,73.64
2023-01-30T10:42:03.130Z,72.85
2023-01-30T10:43:25.274Z,72.16
2023-01-30T10:44:27.168Z,73.07
2023-01-30T10:45:52.333Z,73.27
2023-01-30T10:47:12.881Z,73.43
2023-01-30T10:48:18.126Z,74.04
2023-01-30T10:49:24.057Z,74.49
2023-01-30T10:50:30.514Z,74.68
2023-01-30T10:51:41.468Z,73.62
2023-01-30T10:52:57.881Z,73.38
2023-01-30T10:54:02.779Z,73.41
2023-01-30T10:55:36.377Z,74.00
2023-01-30T10:56:42.662Z,74.54
2023-01-30T10:57:51.020Z,74.25
2023-01-30T10:59:06.781Z,74.17
2023-01-30T11:00:14.658Z,73.11
2023-01-30T11:01:24.361Z,73.25
2023-01-30T11:02:36.229Z,73.66
2023-01-30T11:03:40.844Z,72.96
2023-01-30T11:05:03.967Z,72.73
2023-01-30T11:06:08.146Z,71.75
2023-01-30T11:07:10.291Z,72.27
2023-01-30T11:08:18.457Z,72.68
2023-01-30T11:09:20.236Z,71.50
2023-01-30T11:10:23.961Z,72.31
2023-01-30T11:11:25.721Z,71.36
2023-01-30T11:12:27.518Z,72.54
2023-01-30T11:13:31.264Z,72.82
2023-01-30T11:14:49.758Z,71.94
2023-01-30T11:15:52.940Z,71.64
2023-01-30T11:16:56.206Z,70.18
2023-01-30T11:18:40.396Z,70.98
2023-01-30T11:19:33.887Z,71.18
2023-01-30T11:20:43.905Z,72.36
2023-01-30T11:22:00.176Z,72.20
2023-01-30T11:23:06.805Z,71.35
2023-01-30T11:24:35.159Z,71.16
2023-01-30T11:25:56.682Z,69.70
2023-01-30T11:27:16.321Z,70.07
2023-01-30T11:28:19.680Z,70.18
2023-01-30T11:29:26.894Z,69.26
2023-01-30T11:30:29.953Z,69.98
2023-01-30T11:31:41.429Z,68.42
2023-01-30T11:32:45.115Z,67.21
2023-01-30T11:33:58.932Z,69.08
2023-01-30T11:35:06.742Z,68.07
2023-01-30T11:36:28.663Z,67.46
2023-01-30T11:37:34.960Z,68.16
2023-01-30T11:38:40.627Z,67.17
2023-01-30T11:39:48.972Z,67.47
2023-01-30T11:40:50.872Z,67.80
2023-01-30T11:42:05.226Z,67.42
2023-01-30T11:43:12.183Z,67.17
2023-01-30T11:44:13.966Z,66.86
2023-01-30T11:45:18.560Z,65.54
2023-01-30T11:46:21.427Z,63.17
2023-01-30T11:47:25.645Z,63.95
2023-01-30T11:48:32.760Z,64.77
2023-01-30T11:50:00.624Z,63.89
2023-01-30T11:51:17.367Z,63.31
2023-01-30T11:52:20.723Z,63.54
2023-01-30T11:53:31.401Z,62.94
2023-01-30T11:54:35.016Z,60.61
2023-01-30T11:55:37.883Z,61.24
2023-01-30T11:56:42.912Z,59.52
2023-01-30T11:57:47.460Z,60.12
2023-01-30T11:58:58.335Z,61.81
2023-01-30T12:00:01.125Z,61.62
2023-01-30T12:01:03.638Z,61.25
2023-01-30T12:02:11.365Z,60.82
2023-01-30T12:03:15.152Z,59.31
2023-01-30T12:04:17.801Z,59.50
2023-01-30T12:05:43.099Z,58.46
2023-01-30T12:06:44.836Z,58.49
2023-01-30T12:07:49.523Z,59.19
2023-01-30T12:08:55.460Z,60.10
2023-01-30T12:09:58.830Z,57.58
2023-01-30T12:11:02.787Z,57.94
2023-01-30T12:12:24.495Z,58.62
2023-01-30T12:13:30.944Z,57.08
2023-01-30T12:14:39.345Z,55.91
2023-01-30T12:15:41.600Z,56.88
2023-01-30T12:16:51.902Z,57.39
2023-01-30T12:17:56.605Z,56.66
2023-01-30T12:19:15.812Z,56.92
2023-01-30T12:20:20.706Z,55.49
2023-01-30T12:21:28.299Z,56.34
2023-01-30T12:22:42.169Z,53.83
2023-01-30T12:23:47.628Z,54.38
2023-01-30T12:24:57.080Z,57.07
2023-01-30T12:26:06.000Z,56.76
2023-01-30T12:27:25.039Z,57.18
2023-01-30T12:28:33.253Z,55.84
2023-01-30T12:29:43.657Z,56.56
2023-01-30T12:30:57.110Z,55.13
2023-01-30T12:33:12.437Z,57.16
2023-01-30T12:34:14.365Z,56.88
2023-01-30T12:35:22.073Z,57.91
2023-01-30T12:36:44.217Z,57.68
2023-01-30T12:37:52.089Z,58.04
2023-01-30T12:38:53.926Z,58.01
2023-01-30T12:39:56.548Z,57.56
2023-01-30T12:41:18.717Z,59.38
2023-01-30T12:42:23.696Z,57.73
2023-01-30T12:43:51.858Z,58.45
2023-01-30T12:44:53.944Z,59.25
2023-01-30T12:46:24.957Z,59.02
2023-01-30T12:48:05.254Z,60.20
2023-01-30T12:49:11.260Z,58.74
2023-01-30T12:50:42.871Z,58.91
2023-01-30T12:51:52.264Z,58.72
2023-01-30T12:53:12.779Z,58.32
2023-01-30T12:54:14.627Z,57.81
2023-01-30T12:55:22.415Z,59.32
2023-01-30T12:56:43.360Z,58.66
2023-01-30T12:57:45.163Z,58.95
2023-01-30T12:58:58.527Z,59.87
2023-01-30T13:00:19.138Z,60.20
2023-01-30T13:01:25.607Z,61.12
2023-01-30T13:02:46.262Z,60.16
2023-01-30T13:03:54.771Z,58.37
2023-01-30T13:05:15.281Z,58.66
2023-01-30T13:06:32.543Z,59.25
2023-01-30T13:08:00.740Z,60.44
2023-01-30T13:09:05.343Z,60.86
2023-01-30T13:10:07.252Z,59.94
2023-01-30T13:11:16.964Z,60.54
2023-01-30T13:12:27.715Z,60.23
2023-01-30T13:13:32.112Z,60.80
2023-01-30T13:14:45.732Z,61.13
2023-01-30T13:15:53.377Z,60.82
2023-01-30T13:16:55.349Z,61.68
2023-01-30T13:17:57.165Z,61.87
2023-01-30T13:19:07.789Z,61.99
2023-01-30T13:20:12.754Z,62.35
2023-01-30T13:21:19.023Z,62.49
2023-01-30T13:22:24.388Z,62.59
2023-01-30T13:23:39.615Z,63.03
2023-01-30T13:25:00.925Z,63.47
2023-01-30T13:26:05.856Z,60.87
2023-01-30T13:27:09.990Z,61.42
2023-01-30T13:28:18.491Z,61.72
2023-01-30T13:29:36.171Z,62.34
2023-01-30T13:30:39.893Z,62.24
2023-01-30T13:31:45.899Z,63.11
2023-01-30T13:32:50.302Z,62.94
2023-01-30T13:33:58.985Z,60.03
2023-01-30T13:35:01.403Z,60.99
2023-01-30T13:36:17.956Z,61.89
2023-01-30T13:37:20.645Z,61.25
2023-01-30T13:38:24.839Z,61.02
2023-01-30T13:39:42.288Z,61.11
2023-01-30T13:40:45.538Z,61.46
2023-01-30T13:41:52.218Z,61.96
2023-01-30T13:42:56.851Z,62.87
2023-01-30T13:43:59.309Z,62.66
2023-01-30T13:45:02.147Z,65.38
2023-01-30T13:46:07.595Z,66.36
2023-01-30T13:47:20.385Z,66.27
2023-01-30T13:48:33.452Z,66.90
2023-01-30T13:49:54.077Z,67.88
2023-01-30T13:51:01.754Z,68.92
2023-01-30T13:52:09.756Z,68.70
2023-01-30T13:53:11.638Z,69.48
2023-01-30T13:54:16.637Z,69.69
2023-01-30T13:55:24.733Z,69.93
2023-01-30T13:56:41.821Z,70.82
2023-01-30T13:57:45.003Z,71.52
2023-01-30T13:58:55.763Z,72.20
2023-01-30T14:00:20.781Z,72.22
2023-01-30T14:01:23.581Z,71.86
2023-01-30T14:02:25.905Z,72.35
2023-01-30T14:03:30.977Z,73.34
2023-01-30T14:04:41.738Z,73.73
2023-01-30T14:05:53.136Z,73.94
2023-01-30T14:06:55.021Z,75.15
2023-01-30T14:07:56.999Z,75.51
2023-01-30T14:09:00.550Z,75.36
2023-01-30T14:10:11.368Z,76.29
2023-01-30T14:11:34.092Z,76.87
2023-01-30T14:12:53.116Z,76.93
2023-01-30T14:13:58.576Z,77.15
2023-01-30T14:15:06.288Z,79.38
2023-01-30T14:16:08.332Z,79.29
2023-01-30T14:17:14.650Z,78.94